Ana Sayfa
METAR-TAF:

METAR-TAF

Havaalanları :

El-Mektum Uluslararası Havalimanı

Dubai, Birleşik Arap Emirlikleri

Enlem: 24-53-49N, Boylam: 55-09-40E, yükseklik: 35 m

Güncel hava durumu gözlemi

Rapor saat 00:00 UTC de 1 saat ve 7 dakika önce yapıldı.
Rüzgar batıdan 5 kt
Sıcaklık 15°C
Nem 72%
Basınç 1019 hPa
Görüş mesafesi 10 km veya daha fazla
4500 ft yükseklikte az bulutlu

METAR: OMDW 270000Z 28005KT 9999 FEW045 15/10 Q1019 NOSIG

Saat: 05:07 (01:07 UTC)

Tahmin

Rapor saat 00:55 UTC de 12 dakika önce yapıldı.
Ayın 27'si saat 00 UTC'den ayın 28'si saat 06 UTC'ye kadar geçerli Tahmin
Rüzgar güney/güneydoğudan 5 kt
Görüş mesafesi 10 km veya daha fazla
4000 ft yükseklikte parçalı bulutlu
Dönüşüyor
ayın 27'si saat 04 UTC'den ayın 27'si saat 06 UTC'ye kadar
Rüzgar kuzeybatıdan 14 kt
Dönüşüyor
ayın 27'si saat 16 UTC'den ayın 27'si saat 18 UTC'ye kadar
Rüzgar güney/güneybatıdan 5 kt

TAF: OMDW 270055Z 2700/2806 16005KT 9999 SCT040 BECMG 2704/2706 32014KT BECMG 2716/2718 20005KT

4.000'den fazla havaalanı için hava durumu gözlemleri ve tahminleri (METAR ve TAF raporları).

Kullanılabilir istasyonlar harita üzerinde sarı ve kırmızı noktalarla gösterilir.

İstasyonun adını görmek için fareyi noktanın üzerinde gezdirin.

Sonrasında hava gözlem ve tahminlerini görmek için tıklayın.

Haritayı değiştirmek için: yaklaştırmak için siyah artı işaretli yeşil düğmeye ve uzaklaştırmak için de eksi işaretli düğmeye hızla tıklayın; bitişik haritalar için yeşil okları kullanın.


METAR-TAF: